createdAt,value
2023-04-09T00:02:35.834Z,11.70
2023-04-09T00:05:40.330Z,13.55
2023-04-09T00:08:43.103Z,13.57
2023-04-09T00:11:46.208Z,12.10
2023-04-09T00:14:48.832Z,10.52
2023-04-09T00:17:52.427Z,8.93
2023-04-09T00:20:55.336Z,9.93
2023-04-09T00:23:58.452Z,10.57
2023-04-09T00:27:01.109Z,10.55
2023-04-09T00:30:04.477Z,10.77
2023-04-09T00:33:07.512Z,15.85
2023-04-09T00:36:10.408Z,11.45
2023-04-09T00:39:13.132Z,8.93
2023-04-09T00:42:16.587Z,8.70
2023-04-09T00:45:19.212Z,9.80
2023-04-09T00:48:22.808Z,8.68
2023-04-09T00:51:26.457Z,8.07
2023-04-09T00:54:29.424Z,10.05
2023-04-09T00:57:32.545Z,9.57
2023-04-09T01:00:36.150Z,9.38
2023-04-09T01:03:39.348Z,9.18
2023-04-09T01:06:55.977Z,11.20
2023-04-09T01:10:24.332Z,10.75
2023-04-09T01:13:55.438Z,11.10
2023-04-09T01:17:06.153Z,9.95
2023-04-09T01:20:14.484Z,10.10
2023-04-09T01:23:37.540Z,11.23
2023-04-09T01:27:05.440Z,9.40
2023-04-09T01:30:10.649Z,11.63
2023-04-09T01:33:16.683Z,11.35
2023-04-09T01:36:20.860Z,10.23
2023-04-09T01:39:24.117Z,10.77
2023-04-09T01:42:29.110Z,8.90
2023-04-09T01:45:34.017Z,10.38
2023-04-09T01:48:38.105Z,11.95
2023-04-09T01:51:41.651Z,9.45
2023-04-09T01:54:44.325Z,11.90
2023-04-09T01:57:47.282Z,10.52
2023-04-09T02:00:54.729Z,10.63
2023-04-09T02:04:02.616Z,9.43
2023-04-09T02:07:11.311Z,10.93
2023-04-09T02:10:17.366Z,12.32
2023-04-09T02:13:21.375Z,10.13
2023-04-09T02:16:25.857Z,10.77
2023-04-09T02:19:46.093Z,10.07
2023-04-09T02:25:53.689Z,10.15
2023-04-09T02:28:56.425Z,10.63
2023-04-09T02:31:59.607Z,11.23
2023-04-09T02:35:02.295Z,13.45
2023-04-09T02:38:05.327Z,13.18
2023-04-09T02:41:08.346Z,11.95
2023-04-09T02:44:11.966Z,11.02
2023-04-09T02:47:14.545Z,10.75
2023-04-09T02:50:19.092Z,12.37
2023-04-09T02:53:22.040Z,12.90
2023-04-09T02:56:24.996Z,12.52
2023-04-09T02:59:27.682Z,10.60
2023-04-09T03:02:31.156Z,10.48
2023-04-09T03:05:33.953Z,10.48
2023-04-09T03:08:37.122Z,9.75
2023-04-09T03:11:46.848Z,10.90
2023-04-09T03:14:50.189Z,13.15
2023-04-09T03:17:53.099Z,14.85
2023-04-09T03:20:57.480Z,11.73
2023-04-09T03:24:02.273Z,12.25
2023-04-09T03:27:05.504Z,11.52
2023-04-09T03:30:08.712Z,11.20
2023-04-09T03:33:12.206Z,12.57
2023-04-09T03:36:18.015Z,10.85
2023-04-09T03:39:21.744Z,11.93
2023-04-09T03:42:24.823Z,13.50
2023-04-09T03:45:29.404Z,11.00
2023-04-09T03:48:42.639Z,11.80
2023-04-09T03:51:45.952Z,12.55
2023-04-09T03:54:49.099Z,11.88
2023-04-09T03:57:52.344Z,15.05
2023-04-09T04:00:56.024Z,10.70
2023-04-09T04:03:59.796Z,13.02
2023-04-09T04:07:04.143Z,13.65
2023-04-09T04:10:07.786Z,13.93
2023-04-09T04:13:11.161Z,14.00
2023-04-09T04:16:14.438Z,12.18
2023-04-09T04:19:17.575Z,12.73
2023-04-09T04:22:21.027Z,13.18
2023-04-09T04:25:25.982Z,15.52
2023-04-09T04:28:30.242Z,13.73
2023-04-09T04:31:33.329Z,14.48
2023-04-09T04:34:36.997Z,14.30
2023-04-09T04:37:43.566Z,11.70
2023-04-09T04:40:57.880Z,13.77
2023-04-09T04:44:00.986Z,12.77
2023-04-09T04:47:03.909Z,11.12
2023-04-09T04:50:07.669Z,12.63
2023-04-09T04:53:16.269Z,12.13
2023-04-09T04:56:19.288Z,12.60
2023-04-09T04:59:22.936Z,13.30
2023-04-09T05:02:29.636Z,14.90
2023-04-09T05:05:36.068Z,16.20
2023-04-09T05:08:38.858Z,14.30
2023-04-09T05:11:41.849Z,12.82
2023-04-09T05:14:45.010Z,16.62
2023-04-09T05:17:48.206Z,16.23
2023-04-09T05:20:51.668Z,16.25
2023-04-09T05:23:54.801Z,17.70
2023-04-09T05:26:57.710Z,15.38
2023-04-09T05:30:01.416Z,19.37
2023-04-09T05:33:06.511Z,16.08
2023-04-09T05:36:15.941Z,16.42
2023-04-09T05:39:18.694Z,16.02
2023-04-09T05:42:22.323Z,16.15
2023-04-09T05:45:25.911Z,13.18
2023-04-09T05:48:28.956Z,15.55
2023-04-09T05:51:32.767Z,14.13
2023-04-09T05:54:36.553Z,14.65
2023-04-09T05:57:39.665Z,15.77
2023-04-09T06:00:42.848Z,21.15
2023-04-09T06:03:46.197Z,15.23
2023-04-09T06:06:49.150Z,16.80
2023-04-09T06:09:52.151Z,15.93
2023-04-09T06:12:55.109Z,15.82
2023-04-09T06:15:58.167Z,16.48
2023-04-09T06:19:00.816Z,15.85
2023-04-09T06:22:05.742Z,18.48
2023-04-09T06:25:08.651Z,21.42
2023-04-09T06:28:11.672Z,23.27
2023-04-09T06:31:14.613Z,29.87
2023-04-09T06:34:17.644Z,17.42
2023-04-09T06:37:20.389Z,23.38
2023-04-09T06:40:23.605Z,16.48
2023-04-09T06:43:26.240Z,16.42
2023-04-09T06:46:29.559Z,13.02
2023-04-09T06:49:32.207Z,17.00
2023-04-09T06:52:35.421Z,16.20
2023-04-09T06:55:37.997Z,13.15
2023-04-09T06:58:41.034Z,11.38
2023-04-09T07:01:43.895Z,12.23
2023-04-09T07:04:47.851Z,10.60
2023-04-09T07:07:50.729Z,10.20
2023-04-09T07:10:53.703Z,10.20
2023-04-09T07:13:56.910Z,10.27
2023-04-09T07:16:59.993Z,8.38
2023-04-09T07:20:02.720Z,9.13
2023-04-09T07:23:05.866Z,10.15
2023-04-09T07:26:08.742Z,6.40
2023-04-09T07:29:11.940Z,6.95
2023-04-09T07:32:15.988Z,7.32
2023-04-09T07:35:18.965Z,6.20
2023-04-09T07:38:21.664Z,7.22
2023-04-09T07:41:24.558Z,5.53
2023-04-09T07:44:28.434Z,7.62
2023-04-09T07:47:31.979Z,9.13
2023-04-09T07:50:36.395Z,5.40
2023-04-09T07:53:39.555Z,7.25
2023-04-09T07:56:42.135Z,9.15
2023-04-09T07:59:45.228Z,7.28
2023-04-09T08:02:48.425Z,8.63
2023-04-09T08:05:51.626Z,7.20
2023-04-09T08:08:54.587Z,5.68
2023-04-09T08:11:57.836Z,7.07
2023-04-09T08:15:03.598Z,7.40
2023-04-09T08:18:07.237Z,7.65
2023-04-09T08:21:10.587Z,7.20
2023-04-09T08:24:13.480Z,6.93
2023-04-09T08:27:16.142Z,6.65
2023-04-09T08:30:19.353Z,7.25
2023-04-09T08:33:22.262Z,7.50
2023-04-09T08:36:26.427Z,7.65
2023-04-09T08:39:29.149Z,6.78
2023-04-09T08:42:35.633Z,7.40
2023-04-09T08:45:41.375Z,5.78
2023-04-09T08:48:48.569Z,8.00
2023-04-09T08:51:52.171Z,7.57
2023-04-09T08:54:55.524Z,12.50
2023-04-09T08:57:58.558Z,11.07
2023-04-09T09:01:01.920Z,11.23
2023-04-09T09:04:06.703Z,7.82
2023-04-09T09:07:09.786Z,7.75
2023-04-09T09:10:12.459Z,10.05
2023-04-09T09:13:22.427Z,7.07
2023-04-09T09:16:25.162Z,7.18
2023-04-09T09:19:30.618Z,10.23
2023-04-09T09:22:54.824Z,7.72
2023-04-09T09:25:58.487Z,6.35
2023-04-09T09:29:05.763Z,6.53
2023-04-09T09:32:13.731Z,8.85
2023-04-09T09:35:16.443Z,12.75
2023-04-09T09:38:20.223Z,7.07
2023-04-09T09:41:23.876Z,6.82
2023-04-09T09:44:33.643Z,6.80
2023-04-09T09:47:37.582Z,7.20
2023-04-09T09:50:42.002Z,7.12
2023-04-09T09:53:47.140Z,6.60
2023-04-09T09:56:52.936Z,7.12
2023-04-09T10:00:04.294Z,5.65
2023-04-09T10:03:23.506Z,5.40
2023-04-09T10:06:27.743Z,5.93
2023-04-09T10:09:31.411Z,6.03
2023-04-09T10:12:34.791Z,7.22
2023-04-09T10:15:38.393Z,9.15
2023-04-09T10:18:42.727Z,7.62
2023-04-09T10:22:01.987Z,7.62
2023-04-09T10:25:06.494Z,8.32
2023-04-09T10:28:17.912Z,6.57
2023-04-09T10:31:21.048Z,7.22
2023-04-09T10:34:28.018Z,7.22
2023-04-09T10:37:31.939Z,12.52
2023-04-09T10:40:34.834Z,6.87
2023-04-09T10:43:37.954Z,8.05
2023-04-09T10:46:42.283Z,9.25
2023-04-09T10:49:45.249Z,8.57
2023-04-09T10:52:53.541Z,6.45
2023-04-09T10:55:56.590Z,9.57
2023-04-09T10:58:59.420Z,6.90
2023-04-09T18:25:34.936Z,13.90
2023-04-09T18:28:39.518Z,13.10
2023-04-09T18:31:42.546Z,13.80
2023-04-09T18:34:47.137Z,14.85
2023-04-09T18:37:49.850Z,13.45
2023-04-09T18:40:52.809Z,13.82
2023-04-09T18:43:55.605Z,13.10
2023-04-09T18:46:59.688Z,15.93
2023-04-09T18:50:02.475Z,14.95
2023-04-09T18:53:06.674Z,14.18
2023-04-09T18:56:09.497Z,14.35
2023-04-09T18:59:12.844Z,15.80
2023-04-09T19:02:15.818Z,18.27
2023-04-09T19:05:19.053Z,12.32
2023-04-09T19:08:22.417Z,14.65
2023-04-09T19:11:26.142Z,13.57
2023-04-09T19:14:29.092Z,14.60
2023-04-09T19:17:32.270Z,12.40
2023-04-09T19:20:34.969Z,14.52
2023-04-09T19:23:38.141Z,15.95
2023-04-09T19:26:41.080Z,14.32
2023-04-09T19:29:44.869Z,17.20
2023-04-09T19:32:47.627Z,13.88
2023-04-09T19:35:52.423Z,12.32
2023-04-09T19:38:55.819Z,14.87
2023-04-09T19:41:58.908Z,13.73
2023-04-09T19:45:02.017Z,13.88
2023-04-09T19:48:08.758Z,13.48
2023-04-09T19:51:18.142Z,13.40
2023-04-09T19:54:21.814Z,16.15
2023-04-09T19:57:26.540Z,12.85
2023-04-09T20:00:29.758Z,15.57
2023-04-09T20:03:33.445Z,14.15
2023-04-09T20:06:36.080Z,12.25
2023-04-09T20:09:42.522Z,18.35
2023-04-09T20:12:50.091Z,12.57
2023-04-09T20:15:52.976Z,12.35
2023-04-09T20:18:55.940Z,11.18
2023-04-09T20:22:00.337Z,9.57
2023-04-09T20:25:02.955Z,12.18
